Time;durP1;ratioP1;P1;durP2;ratioP2;P2;SDS_P1;SDS_P2;PMS_P1;PMS_P2;Temp;Humidity;BMP_temperature;BMP_pressure;BME280_temperature;BME280_humidity;BME280_pressure;Samples;Min_cycle;Max_cycle;Signal;HPM_P1;HPM_P2
2023/07/11 00:00:16;;;;;;;8.50;2.90;;;;;;;19.84;100.00;101534.03;5028458;28;20056;-59
2023/07/11 00:02:45;;;;;;;8.32;3.42;;;;;;;19.85;100.00;101533.00;5027801;28;20084;-58
2023/07/11 00:05:15;;;;;;;9.88;3.25;;;;;;;19.86;100.00;101526.69;5011722;28;20044;-59
2023/07/11 00:07:46;;;;;;;7.47;3.50;;;;;;;19.86;100.00;101526.69;5013102;28;20080;-59
2023/07/11 00:10:17;;;;;;;10.60;3.10;;;;;;;19.85;100.00;101527.69;5025717;28;20123;-59
2023/07/11 00:12:46;;;;;;;6.80;3.03;;;;;;;19.84;100.00;101523.34;5011088;28;20076;-59
2023/07/11 00:15:17;;;;;;;7.55;3.30;;;;;;;19.70;100.00;101520.09;5010598;28;20497;-58
2023/07/11 00:17:47;;;;;;;7.28;3.10;;;;;;;19.69;100.00;101520.25;5011923;28;20515;-59
2023/07/11 00:20:16;;;;;;;8.18;3.20;;;;;;;19.65;100.00;101510.84;5025359;28;20496;-59
2023/07/11 00:22:46;;;;;;;10.55;3.72;;;;;;;19.70;100.00;101520.09;5013478;28;20473;-59
2023/07/11 00:25:14;;;;;;;9.18;3.47;;;;;;;19.69;100.00;101509.59;5011863;28;20485;-59
2023/07/11 00:27:42;;;;;;;7.82;3.70;;;;;;;19.59;100.00;101506.91;5012612;28;20085;-59
2023/07/11 00:30:11;;;;;;;10.68;3.50;;;;;;;19.67;100.00;101515.03;5015071;28;20108;-59
2023/07/11 00:32:40;;;;;;;8.52;4.00;;;;;;;19.61;100.00;101510.28;4995653;28;20049;-59
2023/07/11 00:35:09;;;;;;;8.13;3.45;;;;;;;19.61;100.00;101501.47;5022334;28;20054;-58
2023/07/11 00:37:37;;;;;;;9.25;3.65;;;;;;;19.56;100.00;101501.88;5027478;28;20103;-59
2023/07/11 00:40:07;;;;;;;9.13;3.47;;;;;;;19.59;100.00;101501.56;5025396;28;20056;-59
2023/07/11 00:42:35;;;;;;;7.18;3.50;;;;;;;19.50;100.00;101497.94;5024211;28;20054;-59
2023/07/11 00:45:05;;;;;;;9.23;3.40;;;;;;;19.49;100.00;101500.75;5008658;28;20553;-59
2023/07/11 00:47:33;;;;;;;9.55;3.45;;;;;;;19.40;100.00;101497.09;5008489;28;20058;-59
2023/07/11 00:50:06;;;;;;;8.20;3.92;;;;;;;19.45;100.00;101499.38;5009390;28;20140;-60
2023/07/11 00:52:36;;;;;;;8.60;3.67;;;;;;;19.37;100.00;101498.25;5010163;28;20054;-59
2023/07/11 00:55:09;;;;;;;12.60;3.88;;;;;;;19.42;100.00;101493.31;5009054;28;20480;-59
2023/07/11 00:57:41;;;;;;;7.65;3.22;;;;;;;19.35;100.00;101491.38;5011157;28;20393;-59
2023/07/11 01:00:11;;;;;;;5.85;3.42;;;;;;;19.31;100.00;101487.31;5022226;28;20080;-59
2023/07/11 01:02:39;;;;;;;7.95;3.50;;;;;;;19.30;100.00;101489.13;5011653;28;20579;-59
2023/07/11 01:05:07;;;;;;;8.88;3.70;;;;;;;19.27;100.00;101491.25;5008936;28;20120;-60
2023/07/11 01:07:37;;;;;;;12.80;4.05;;;;;;;19.27;100.00;101488.59;5012649;28;20038;-60
2023/07/11 01:10:08;;;;;;;8.82;3.58;;;;;;;19.26;100.00;101487.72;5012206;28;20049;-60
2023/07/11 01:12:36;;;;;;;10.45;3.97;;;;;;;19.23;100.00;101490.69;5010579;28;20084;-60
2023/07/11 01:15:06;;;;;;;9.23;3.90;;;;;;;19.17;100.00;101496.56;5008820;28;20071;-59
2023/07/11 01:17:35;;;;;;;8.38;3.30;;;;;;;19.20;100.00;101494.47;5006553;28;20108;-59
2023/07/11 01:20:07;;;;;;;8.88;3.60;;;;;;;19.19;100.00;101494.59;5015627;28;20136;-58
2023/07/11 01:22:38;;;;;;;7.18;3.40;;;;;;;19.12;100.00;101489.00;5027067;28;20045;-59
2023/07/11 01:25:09;;;;;;;8.45;3.15;;;;;;;19.05;100.00;101491.38;5023594;28;20096;-59
2023/07/11 01:27:39;;;;;;;8.85;3.80;;;;;;;19.12;100.00;101480.16;5017829;28;20562;-60
2023/07/11 01:30:10;;;;;;;9.15;3.78;;;;;;;19.15;100.00;101480.72;5013950;28;20045;-59
2023/07/11 01:32:39;;;;;;;8.13;3.38;;;;;;;19.05;100.00;101483.38;5014111;28;20045;-59
2023/07/11 01:35:08;;;;;;;8.30;3.40;;;;;;;19.11;100.00;101476.63;5023378;28;20390;-60
2023/07/11 01:37:38;;;;;;;9.40;3.58;;;;;;;18.97;100.00;101475.25;5006836;28;20092;-59
2023/07/11 01:40:07;;;;;;;9.57;3.33;;;;;;;19.05;100.00;101474.56;5008982;28;20531;-60
2023/07/11 01:42:36;;;;;;;8.50;3.30;;;;;;;18.97;100.00;101469.09;5016894;28;20385;-59
2023/07/11 01:45:05;;;;;;;10.02;3.90;;;;;;;18.79;100.00;101467.06;5011625;28;20042;-60
2023/07/11 01:47:35;;;;;;;8.38;4.22;;;;;;;18.82;100.00;101460.63;5010209;28;20046;-59
2023/07/11 01:50:04;;;;;;;10.45;3.97;;;;;;;18.91;100.00;101459.81;5008460;28;20057;-60
2023/07/11 01:52:32;;;;;;;7.75;3.88;;;;;;;18.79;100.00;101455.56;5025993;28;20408;-59
2023/07/11 01:55:02;;;;;;;6.53;3.30;;;;;;;18.74;100.00;101455.97;5016343;28;20053;-58
2023/07/11 01:57:30;;;;;;;7.72;3.45;;;;;;;18.73;100.00;101444.50;5010146;28;20042;-58
2023/07/11 01:59:58;;;;;;;8.55;3.25;;;;;;;18.71;100.00;101446.44;5025647;28;20092;-59
2023/07/11 02:02:26;;;;;;;8.75;3.25;;;;;;;18.71;100.00;101437.63;5023505;28;20049;-58
2023/07/11 02:04:54;;;;;;;6.45;3.17;;;;;;;18.67;100.00;101439.72;5011412;28;20397;-58
2023/07/11 02:07:23;;;;;;;8.30;3.42;;;;;;;18.68;100.00;101437.88;5025868;28;20057;-59
2023/07/11 02:09:51;;;;;;;10.77;3.75;;;;;;;18.64;100.00;101433.81;5027861;28;20049;-58
2023/07/11 02:12:22;;;;;;;8.23;3.88;;;;;;;18.60;100.00;101425.28;5022717;28;20068;-58
2023/07/11 02:14:51;;;;;;;7.95;3.20;;;;;;;18.64;100.00;101425.81;5025059;28;20045;-58
2023/07/11 02:17:19;;;;;;;9.98;3.90;;;;;;;18.69;100.00;101419.13;5018653;28;20076;-58
2023/07/11 02:19:47;;;;;;;8.00;3.33;;;;;;;18.60;100.00;101414.63;5027828;28;20524;-59
2023/07/11 02:22:18;;;;;;;6.47;3.35;;;;;;;18.54;100.00;101415.16;5017774;28;20053;-59
2023/07/11 02:24:46;;;;;;;9.00;3.83;;;;;;;18.50;100.00;101411.09;5020718;28;20041;-58
2023/07/11 02:27:14;;;;;;;9.13;3.85;;;;;;;18.55;100.00;101411.53;5028355;28;20111;-59
2023/07/11 02:29:44;;;;;;;9.20;3.50;;;;;;;18.54;100.00;101401.84;5032566;28;20492;-59
2023/07/11 02:32:12;;;;;;;7.60;3.28;;;;;;;18.50;100.00;101400.44;5022017;28;20077;-59
2023/07/11 02:34:40;;;;;;;9.00;3.80;;;;;;;18.46;100.00;101402.56;5013268;28;20132;-58
2023/07/11 02:37:08;;;;;;;10.68;4.38;;;;;;;18.40;100.00;101406.59;5015933;28;20050;-58
2023/07/11 02:39:36;;;;;;;7.75;3.40;;;;;;;18.42;100.00;101401.97;5012021;28;20046;-58
2023/07/11 02:42:06;;;;;;;7.72;3.67;;;;;;;18.39;100.00;101393.41;5012162;28;20042;-59
2023/07/11 02:44:34;;;;;;;7.60;3.30;;;;;;;18.38;100.00;101397.06;5023401;28;20547;-60
2023/07/11 02:47:04;;;;;;;8.10;3.70;;;;;;;18.34;100.00;101393.84;5024193;28;20054;-60
2023/07/11 02:49:32;;;;;;;10.02;3.80;;;;;;;18.37;100.00;101392.72;5018911;28;20038;-59
2023/07/11 02:52:00;;;;;;;6.47;3.40;;;;;;;18.28;100.00;101382.88;5025066;28;20045;-59
2023/07/11 02:54:28;;;;;;;8.68;3.55;;;;;;;18.32;100.00;101385.13;5028508;28;20045;-60
2023/07/11 02:56:56;;;;;;;9.98;3.95;;;;;;;18.16;100.00;101379.50;5029877;28;20531;-58
2023/07/11 02:59:25;;;;;;;7.05;3.50;;;;;;;18.17;100.00;101376.69;5010088;28;20108;-59
2023/07/11 03:01:53;;;;;;;6.00;3.08;;;;;;;18.19;100.00;101373.91;5026574;28;20045;-59
2023/07/11 03:04:22;;;;;;;8.65;3.50;;;;;;;18.14;100.00;101369.00;5009841;28;20050;-59
2023/07/11 03:06:53;;;;;;;11.52;4.10;;;;;;;18.10;100.00;101364.09;5011734;28;20125;-58
2023/07/11 03:09:22;;;;;;;11.18;3.40;;;;;;;18.07;100.00;101363.38;5012876;28;20053;-58
2023/07/11 03:11:50;;;;;;;8.38;3.17;;;;;;;18.05;100.00;101361.81;5011767;28;20765;-58
2023/07/11 03:14:19;;;;;;;8.48;3.30;;;;;;;18.00;100.00;101358.75;5011485;28;20420;-58
2023/07/11 03:16:50;;;;;;;9.02;3.70;;;;;;;18.01;100.00;101358.59;5011869;28;20049;-59
2023/07/11 03:19:23;;;;;;;8.35;3.22;;;;;;;18.00;100.00;101353.44;5014793;28;20046;-58
2023/07/11 03:21:51;;;;;;;9.68;3.42;;;;;;;17.97;100.00;101357.19;5012391;28;20088;-59
2023/07/11 03:24:19;;;;;;;8.55;3.78;;;;;;;17.98;100.00;101358.84;5010916;28;20050;-58
2023/07/11 03:26:48;;;;;;;6.35;3.47;;;;;;;17.98;100.00;101345.56;5011155;28;20081;-59
2023/07/11 03:29:16;;;;;;;8.52;3.08;;;;;;;17.88;100.00;101342.84;5010995;28;20119;-59
2023/07/11 03:31:44;;;;;;;9.23;3.47;;;;;;;17.89;100.00;101347.19;5010190;28;20050;-58
2023/07/11 03:34:12;;;;;;;7.22;3.83;;;;;;;17.80;100.00;101334.69;5012717;28;20053;-58
2023/07/11 03:36:42;;;;;;;9.40;3.60;;;;;;;17.84;100.00;101335.28;5029660;28;20153;-59
2023/07/11 03:39:11;;;;;;;7.80;3.40;;;;;;;17.84;100.00;101332.63;5010643;28;20129;-58
2023/07/11 03:41:39;;;;;;;8.27;3.67;;;;;;;17.77;100.00;101328.81;5014232;28;20528;-59
2023/07/11 03:44:07;;;;;;;9.10;3.85;;;;;;;17.77;100.00;101329.66;5011600;28;20092;-59
2023/07/11 03:46:35;;;;;;;7.13;3.55;;;;;;;17.84;100.00;101324.63;5023755;28;20392;-60
2023/07/11 03:49:03;;;;;;;9.02;3.67;;;;;;;17.79;100.00;101321.53;5028273;28;21271;-59
2023/07/11 03:51:32;;;;;;;6.38;3.20;;;;;;;17.78;100.00;101315.38;5018928;28;20049;-59
2023/07/11 03:54:01;;;;;;;8.25;3.63;;;;;;;17.71;100.00;101315.09;5026082;28;20076;-58
2023/07/11 03:56:30;;;;;;;9.70;3.85;;;;;;;17.71;100.00;101314.22;5019578;28;20042;-58
2023/07/11 03:58:58;;;;;;;8.15;3.80;;;;;;;17.69;100.00;101313.53;5010921;28;20421;-59
2023/07/11 04:01:26;;;;;;;7.97;3.67;;;;;;;17.71;100.00;101317.75;5013961;28;20343;-58
2023/07/11 04:03:54;;;;;;;8.60;3.40;;;;;;;17.69;100.00;101310.88;5013363;28;20044;-59
2023/07/11 04:06:22;;;;;;;8.32;3.75;;;;;;;17.71;100.00;101317.75;5020086;28;20034;-59
2023/07/11 04:08:51;;;;;;;6.05;2.95;;;;;;;17.72;100.00;101314.13;5008868;28;20464;-59
2023/07/11 04:11:20;;;;;;;6.97;2.92;;;;;;;17.74;100.00;101316.63;5020575;28;20103;-58
2023/07/11 04:13:48;;;;;;;8.23;3.33;;;;;;;17.71;100.00;101317.75;5017779;28;20129;-58
2023/07/11 04:16:17;;;;;;;8.88;3.50;;;;;;;17.74;100.00;101314.81;5017935;28;20459;-58
2023/07/11 04:18:45;;;;;;;7.47;3.20;;;;;;;17.75;100.00;101310.31;5031070;28;20055;-58
2023/07/11 04:21:13;;;;;;;7.90;3.42;;;;;;;17.72;100.00;101303.47;5028536;28;20054;-60
2023/07/11 04:23:41;;;;;;;7.70;2.95;;;;;;;17.76;100.00;101308.50;5027754;28;20048;-58
2023/07/11 04:26:09;;;;;;;7.03;2.80;;;;;;;17.73;100.00;101304.31;5022362;28;20061;-58
2023/07/11 04:28:39;;;;;;;6.63;2.95;;;;;;;17.74;100.00;101304.16;5025061;28;20041;-59
2023/07/11 04:31:07;;;;;;;11.60;2.95;;;;;;;17.80;100.00;101305.44;5012519;28;20046;-58
2023/07/11 04:33:35;;;;;;;6.40;3.10;;;;;;;17.80;100.00;101309.94;5011568;28;20057;-59
2023/07/11 04:36:11;;;;;;;9.00;3.00;;;;;;;17.77;100.00;101296.91;5010024;28;20121;-58
2023/07/11 04:38:40;;;;;;;8.13;3.17;;;;;;;17.80;100.00;101299.28;5010073;28;20124;-58
2023/07/11 04:41:09;;;;;;;7.72;3.10;;;;;;;17.78;100.00;101293.25;5011004;28;20488;-58
2023/07/11 04:43:40;;;;;;;9.35;3.20;;;;;;;17.83;100.00;101293.69;5013969;28;20041;-58
2023/07/11 04:46:10;;;;;;;6.57;3.05;;;;;;;17.79;100.00;101292.28;5021496;28;20397;-58
2023/07/11 04:48:38;;;;;;;9.23;3.03;;;;;;;17.79;100.00;101286.94;5016601;28;20047;-59
2023/07/11 04:51:10;;;;;;;8.30;3.22;;;;;;;17.79;100.00;101289.63;5018132;28;20049;-59
2023/07/11 04:53:40;;;;;;;6.95;3.10;;;;;;;17.84;100.00;101290.06;5015029;28;20045;-58
2023/07/11 04:56:10;;;;;;;8.50;3.35;;;;;;;17.87;100.00;101292.44;5009502;28;20412;-59
2023/07/11 04:58:40;;;;;;;8.93;3.47;;;;;;;17.84;100.00;101280.25;5019061;28;20096;-58
2023/07/11 05:01:10;;;;;;;9.70;3.30;;;;;;;17.87;100.00;101279.13;5009498;28;20046;-59
2023/07/11 05:03:39;;;;;;;11.52;3.38;;;;;;;17.90;100.00;101276.19;5008872;28;20046;-59
2023/07/11 05:06:09;;;;;;;8.57;3.30;;;;;;;18.04;100.00;101280.31;5009085;28;20381;-59
2023/07/11 05:08:37;;;;;;;9.38;3.20;;;;;;;18.02;100.00;101272.44;5009139;28;20145;-59
2023/07/11 05:11:11;;;;;;;8.90;3.55;;;;;;;18.07;100.00;101275.53;5008804;28;20459;-59
2023/07/11 05:13:41;;;;;;;10.48;5.22;;;;;;;18.13;100.00;101273.31;5008515;28;20050;-60
2023/07/11 05:16:15;;;;;;;10.02;4.05;;;;;;;18.21;100.00;101273.47;5015283;28;20072;-59
2023/07/11 05:18:43;;;;;;;9.50;3.60;;;;;;;18.33;100.00;101269.69;5012618;28;20121;-59
2023/07/11 05:21:15;;;;;;;9.45;3.70;;;;;;;18.42;100.00;101262.69;5022160;28;20084;-59
2023/07/11 05:23:43;;;;;;;9.48;3.40;;;;;;;18.53;100.00;101264.34;5013680;28;20049;-59
2023/07/11 05:26:12;;;;;;;10.18;3.42;;;;;;;18.63;100.00;101262.50;5022332;28;20044;-58
2023/07/11 05:28:42;;;;;;;7.82;3.17;;;;;;;18.63;100.00;101262.50;5015912;28;20073;-58
2023/07/11 05:31:10;;;;;;;10.93;3.60;;;;;;;18.75;100.00;101252.53;5012464;28;20056;-57
2023/07/11 05:33:39;;;;;;;7.43;3.10;;;;;;;18.93;100.00;101247.31;5014636;28;20397;-57
2023/07/11 05:36:31;;;;;;;9.70;3.10;;;;;;;18.96;100.00;101249.69;5010033;28;20700;-58
2023/07/11 05:39:02;;;;;;;7.03;3.20;;;;;;;19.08;100.00;101239.69;5006114;28;20117;-57
2023/07/11 05:41:31;;;;;;;7.65;2.95;;;;;;;19.19;100.00;101231.50;5024807;28;20444;-57
2023/07/11 05:44:01;;;;;;;9.50;3.22;;;;;;;19.31;100.00;101234.00;5020148;28;20041;-57
2023/07/11 05:46:30;;;;;;;10.88;3.10;;;;;;;19.39;100.00;101237.59;5014930;28;20042;-57
2023/07/11 05:48:59;;;;;;;9.57;3.42;;;;;;;19.48;100.00;101232.38;5017942;28;20484;-57
2023/07/11 05:51:27;;;;;;;9.43;3.30;;;;;;;19.53;100.00;101228.25;5016745;28;20100;-57
2023/07/11 05:53:55;;;;;;;8.43;3.20;;;;;;;19.74;100.00;101225.31;5012063;28;20041;-58
2023/07/11 05:56:24;;;;;;;9.02;3.38;;;;;;;19.75;100.00;101226.97;5008549;28;20116;-58
2023/07/11 05:58:54;;;;;;;8.20;3.33;;;;;;;19.90;100.00;101229.16;5018955;28;20423;-58
2023/07/11 06:01:25;;;;;;;9.60;3.70;;;;;;;19.95;100.00;101221.56;5015644;28;20369;-58
2023/07/11 06:04:06;;;;;;;9.82;3.60;;;;;;;20.18;100.00;101216.59;5017448;28;20424;-58
2023/07/11 06:06:41;;;;;;;9.85;3.75;;;;;;;20.32;100.00;101214.38;5009177;28;20493;-58
2023/07/11 06:09:12;;;;;;;8.75;2.85;;;;;;;20.37;100.00;101217.38;5020992;28;20045;-58
2023/07/11 06:11:40;;;;;;;10.02;3.50;;;;;;;20.59;100.00;101214.22;5028134;28;20410;-57
2023/07/11 06:14:10;;;;;;;7.70;2.97;;;;;;;20.59;100.00;101200.03;5015309;28;20125;-58
2023/07/11 06:16:41;;;;;;;11.30;2.97;;;;;;;20.76;100.00;101206.34;5007964;28;20045;-58
2023/07/11 06:19:10;;;;;;;9.68;3.05;;;;;;;20.82;100.00;101202.19;5026311;28;20045;-58
2023/07/11 06:21:38;;;;;;;5.88;2.90;;;;;;;20.96;100.00;101206.13;5027130;28;20053;-57
2023/07/11 06:24:07;;;;;;;8.45;2.67;;;;;;;21.11;100.00;101194.66;5016952;28;20701;-58
2023/07/11 06:26:35;;;;;;;7.82;3.00;;;;;;;21.28;100.00;101198.22;5008300;28;20049;-57
2023/07/11 06:29:03;;;;;;;9.50;3.15;;;;;;;21.44;100.00;101196.59;5017410;28;20144;-57
2023/07/11 06:31:32;;;;;;;9.60;3.10;;;;;;;21.58;100.00;101195.16;5027773;28;20101;-58
2023/07/11 06:34:01;;;;;;;8.48;2.88;;;;;;;21.66;100.00;101203.19;5020024;28;20121;-58
2023/07/11 06:36:29;;;;;;;7.90;2.88;;;;;;;21.85;100.00;101204.75;5008327;28;20058;-58
2023/07/11 06:38:58;;;;;;;10.23;3.10;;;;;;;22.08;100.00;101199.56;5012871;28;20099;-57
2023/07/11 06:41:28;;;;;;;7.50;3.08;;;;;;;22.11;100.00;101198.41;5026147;28;20042;-57
2023/07/11 06:43:57;;;;;;;9.38;2.80;;;;;;;22.23;100.00;101189.00;5021351;28;20416;-57
2023/07/11 06:46:25;;;;;;;8.93;2.63;;;;;;;22.38;100.00;101191.88;5004394;28;20426;-58
2023/07/11 06:48:55;;;;;;;6.43;2.45;;;;;;;22.50;100.00;101186.19;5011773;28;20129;-59
2023/07/11 06:51:25;;;;;;;9.13;2.55;;;;;;;22.59;100.00;101193.19;5007683;28;20050;-58
2023/07/11 06:53:54;;;;;;;6.32;2.67;;;;;;;22.75;100.00;101184.28;5007130;28;20135;-58
2023/07/11 06:56:23;;;;;;;7.65;2.63;;;;;;;22.87;100.00;101187.44;5008121;28;20579;-58
2023/07/11 06:58:51;;;;;;;9.85;2.70;;;;;;;23.01;100.00;101183.19;5006875;28;20497;-58
2023/07/11 07:01:22;;;;;;;8.75;2.75;;;;;;;23.24;100.00;101178.75;5007311;28;20046;-58
2023/07/11 07:04:04;;;;;;;8.50;2.40;;;;;;;23.43;100.00;101176.63;5010606;28;20117;-58
2023/07/11 07:06:35;;;;;;;8.73;2.92;;;;;;;23.58;100.00;101174.03;5008046;28;20556;-59
2023/07/11 07:09:04;;;;;;;8.20;2.45;;;;;;;23.76;100.00;101181.78;5007361;28;20065;-59
2023/07/11 07:11:32;;;;;;;7.93;2.30;;;;;;;23.94;100.00;101179.69;5007559;28;20133;-58
2023/07/11 07:14:01;;;;;;;7.95;2.55;;;;;;;24.12;100.00;101182.03;5009979;28;20107;-58
2023/07/11 07:16:34;;;;;;;5.40;2.10;;;;;;;24.30;100.00;101181.69;5028154;28;20292;-58
2023/07/11 07:19:03;;;;;;;9.00;2.60;;;;;;;24.46;99.68;101178.03;5027102;28;20064;-58
2023/07/11 07:21:32;;;;;;;5.38;2.40;;;;;;;24.67;96.83;101176.50;5011328;28;20044;-58
2023/07/11 07:24:05;;;;;;;6.18;2.40;;;;;;;24.87;100.00;101171.41;5009319;28;20081;-58
2023/07/11 07:26:34;;;;;;;7.72;2.92;;;;;;;25.03;98.38;101175.72;5011173;28;20073;-59
2023/07/11 07:29:02;;;;;;;6.80;2.30;;;;;;;25.22;95.27;101174.28;5011946;28;20053;-58
2023/07/11 07:31:31;;;;;;;10.20;2.63;;;;;;;25.29;93.14;101174.38;5007174;28;20045;-59
2023/07/11 07:33:59;;;;;;;9.15;2.92;;;;;;;25.35;90.82;101181.72;5029228;28;20049;-58
2023/07/11 07:36:28;;;;;;;7.18;2.40;;;;;;;25.52;91.10;101176.13;5019460;28;20893;-58
2023/07/11 07:38:56;;;;;;;6.20;2.47;;;;;;;25.58;88.91;101172.66;5029767;28;20046;-58
2023/07/11 07:41:26;;;;;;;7.57;3.08;;;;;;;25.68;88.06;101172.34;5025557;28;20041;-58
2023/07/11 07:43:55;;;;;;;8.45;2.60;;;;;;;25.81;88.17;101170.63;5017420;28;20584;-58
2023/07/11 07:46:23;;;;;;;7.15;2.83;;;;;;;25.82;88.40;101168.75;5021579;28;20469;-58
2023/07/11 07:48:54;;;;;;;6.82;3.00;;;;;;;25.89;88.16;101166.97;5009782;28;20519;-58
2023/07/11 07:51:22;;;;;;;6.35;2.35;;;;;;;25.93;85.07;101159.31;5010847;28;20501;-57
2023/07/11 07:53:53;;;;;;;7.45;2.75;;;;;;;25.96;87.46;101161.63;5010459;28;20112;-57
2023/07/11 07:56:25;;;;;;;6.88;2.80;;;;;;;26.24;86.96;101156.25;5010549;28;20049;-58
2023/07/11 07:58:53;;;;;;;9.50;2.83;;;;;;;26.51;86.47;101156.44;5010013;28;20517;-58
2023/07/11 08:01:24;;;;;;;10.02;2.47;;;;;;;26.53;83.40;101143.59;5010107;28;20425;-58
2023/07/11 08:03:52;;;;;;;6.15;2.50;;;;;;;26.75;84.71;101147.06;5009485;28;20465;-58
2023/07/11 08:06:20;;;;;;;5.97;2.80;;;;;;;26.81;82.83;101140.06;5013281;28;20052;-58
2023/07/11 08:08:49;;;;;;;10.10;2.60;;;;;;;27.03;84.33;101142.63;5023048;28;20072;-58
2023/07/11 08:11:19;;;;;;;7.85;2.55;;;;;;;27.02;78.73;101132.88;5026753;28;20112;-57
2023/07/11 08:13:49;;;;;;;10.00;2.75;;;;;;;27.33;80.53;101132.31;5022295;28;20042;-58
2023/07/11 08:16:27;;;;;;;6.30;2.20;;;;;;;27.61;76.42;101132.22;5027317;28;20042;-58
2023/07/11 08:19:04;;;;;;;6.13;2.58;;;;;;;27.74;73.29;101127.84;5007412;28;20049;-57
2023/07/11 08:21:35;;;;;;;7.43;2.83;;;;;;;27.84;75.55;101128.25;5019079;28;20045;-58
2023/07/11 08:24:05;;;;;;;6.32;2.25;;;;;;;27.82;73.28;101122.25;5016486;28;20050;-57
2023/07/11 08:26:33;;;;;;;7.25;2.33;;;;;;;27.88;68.79;101117.88;5025459;28;20125;-58
2023/07/11 08:29:03;;;;;;;5.90;2.35;;;;;;;27.91;71.76;101112.88;5011551;28;20139;-57
2023/07/11 08:31:47;;;;;;;6.72;2.38;;;;;;;28.12;69.51;101117.25;5025024;28;20366;-58
2023/07/11 08:34:16;;;;;;;6.40;2.25;;;;;;;28.34;68.74;101115.13;5027072;28;20053;-58
2023/07/11 08:36:46;;;;;;;7.45;2.30;;;;;;;28.55;67.36;101112.38;5024208;28;20076;-58
2023/07/11 08:39:14;;;;;;;7.03;2.33;;;;;;;28.83;67.41;101110.22;5008379;28;20070;-59
2023/07/11 08:41:46;;;;;;;8.60;2.28;;;;;;;29.15;66.29;101109.41;5024331;28;20033;-59
2023/07/11 08:44:22;;;;;;;5.53;1.92;;;;;;;29.42;65.92;101110.09;5017430;28;20382;-60
2023/07/11 08:47:00;;;;;;;8.40;2.67;;;;;;;29.63;61.64;101113.53;5012921;28;20104;-57
2023/07/11 08:49:33;;;;;;;10.00;2.53;;;;;;;29.44;62.11;101107.22;5012952;28;20050;-57
2023/07/11 08:52:03;;;;;;;7.15;2.38;;;;;;;29.60;61.93;101106.66;5013105;28;20050;-57
2023/07/11 08:54:34;;;;;;;9.73;2.55;;;;;;;29.70;59.11;101105.34;5013099;28;20081;-57
2023/07/11 08:57:02;;;;;;;7.10;2.15;;;;;;;30.06;62.45;101095.66;5010819;28;20058;-59
2023/07/11 08:59:42;;;;;;;8.10;1.98;;;;;;;30.39;63.31;101106.16;5009385;28;20719;-59
2023/07/11 09:02:29;;;;;;;10.70;2.37;;;;;;;30.18;54.68;101100.09;5012927;28;20052;-58
2023/07/11 09:05:04;;;;;;;6.72;2.00;;;;;;;29.95;56.20;101094.50;5011417;28;20490;-57
2023/07/11 09:07:37;;;;;;;5.68;1.77;;;;;;;30.30;55.64;101086.63;5010570;28;20065;-59
2023/07/11 09:10:43;;;;;;;7.22;1.88;;;;;;;30.60;56.34;101082.38;5009086;28;20049;-60
2023/07/11 09:13:33;;;;;;;5.25;1.80;;;;;;;30.32;54.19;101084.53;5009095;28;20133;-60
2023/07/11 09:16:08;;;;;;;8.65;2.10;;;;;;;30.60;55.33;101076.94;5011202;28;20049;-60
2023/07/11 09:18:46;;;;;;;6.13;2.10;;;;;;;30.98;59.20;101076.63;5008941;28;20049;-59
2023/07/11 09:21:19;;;;;;;5.05;1.75;;;;;;;31.19;55.63;101080.72;5009300;28;20046;-60
2023/07/11 09:23:56;;;;;;;9.38;2.05;;;;;;;31.30;54.55;101073.69;5008394;28;20056;-59
2023/07/11 09:26:48;;;;;;;6.88;2.10;;;;;;;31.51;52.67;101082.34;5011459;28;20065;-59
2023/07/11 09:29:18;;;;;;;9.30;1.88;;;;;;;31.26;53.99;101077.91;5011961;28;20054;-58
2023/07/11 09:31:53;;;;;;;8.02;1.75;;;;;;;31.27;53.39;101081.47;5008432;28;20152;-57
2023/07/11 09:34:26;;;;;;;12.98;2.08;;;;;;;31.51;51.95;101085.06;5008796;28;20564;-56
2023/07/11 09:36:58;;;;;;;7.18;1.92;;;;;;;31.63;53.94;101079.66;5009231;28;20471;-57
2023/07/11 09:39:36;;;;;;;7.32;1.90;;;;;;;31.73;52.40;101088.06;5008021;28;20505;-56
2023/07/11 09:42:10;;;;;;;7.70;2.13;;;;;;;31.97;51.34;101083.47;5009472;28;20381;-56
2023/07/11 09:44:38;;;;;;;8.25;2.20;;;;;;;31.96;53.46;101075.53;5010853;28;20041;-56
2023/07/11 09:47:17;;;;;;;6.60;1.70;;;;;;;32.10;52.10;101071.50;5006448;28;20050;-57
2023/07/11 09:49:48;;;;;;;4.85;1.52;;;;;;;32.43;50.92;101070.06;5008512;28;20050;-57
2023/07/11 09:52:26;;;;;;;6.90;1.58;;;;;;;32.47;50.55;101075.84;5009114;28;20046;-56
2023/07/11 09:54:56;;;;;;;6.13;1.95;;;;;;;32.53;50.06;101063.97;5008569;28;20743;-57
2023/07/11 09:57:45;;;;;;;5.97;1.80;;;;;;;32.38;51.69;101067.22;5009050;28;20549;-57
2023/07/11 10:00:16;;;;;;;8.57;2.10;;;;;;;32.12;51.23;101066.66;5008535;28;20104;-57
2023/07/11 10:02:51;;;;;;;5.70;1.90;;;;;;;32.06;50.28;101058.63;5007675;28;20065;-56
2023/07/11 10:05:23;;;;;;;7.55;2.00;;;;;;;31.98;51.31;101057.09;5009725;28;20053;-60
2023/07/11 10:08:00;;;;;;;7.22;2.10;;;;;;;32.26;52.84;101056.38;5009197;28;20042;-60
2023/07/11 10:10:28;;;;;;;7.93;2.00;;;;;;;32.15;52.26;101052.63;5009114;28;20089;-60
2023/07/11 10:13:01;;;;;;;5.65;1.88;;;;;;;32.24;53.91;101057.69;5007803;28;20901;-60
2023/07/11 10:15:43;;;;;;;5.22;1.70;;;;;;;32.28;51.67;101051.50;5008077;28;20752;-57
2023/07/11 10:18:19;;;;;;;5.70;2.00;;;;;;;32.30;52.36;101049.41;5007883;28;20482;-57
2023/07/11 10:20:50;;;;;;;7.38;1.73;;;;;;;32.25;51.20;101045.75;5008202;28;20053;-59
2023/07/11 10:23:22;;;;;;;7.75;1.70;;;;;;;31.92;53.72;101042.56;5008291;28;20088;-61
2023/07/11 10:25:53;;;;;;;6.25;2.22;;;;;;;32.03;52.13;101046.34;5007627;28;20066;-60
2023/07/11 10:28:29;;;;;;;4.60;1.92;;;;;;;32.28;49.89;101042.53;5008107;28;20394;-60
2023/07/11 10:31:04;;;;;;;5.20;1.70;;;;;;;32.09;51.49;101041.84;5007817;28;20145;-60
2023/07/11 10:33:47;;;;;;;6.28;1.67;;;;;;;32.60;53.38;101037.47;5010661;28;20084;-60
2023/07/11 10:36:30;;;;;;;6.18;2.10;;;;;;;32.81;47.72;101035.16;5018255;28;20501;-61
2023/07/11 10:39:02;;;;;;;6.22;1.90;;;;;;;32.69;45.68;101035.16;5012991;28;20050;-59
2023/07/11 10:41:34;;;;;;;6.88;2.10;;;;;;;32.85;49.23;101026.25;5028047;28;20447;-60
2023/07/11 10:44:05;;;;;;;7.70;2.20;;;;;;;32.95;46.80;101039.22;5021551;28;20161;-60
2023/07/11 10:46:41;;;;;;;7.03;2.20;;;;;;;33.10;48.05;101038.66;5008173;28;20121;-60
2023/07/11 10:49:15;;;;;;;6.97;1.95;;;;;;;32.90;46.04;101027.41;5011066;28;20064;-61
2023/07/11 10:51:52;;;;;;;5.65;1.90;;;;;;;33.14;45.62;101025.38;5011269;28;20054;-60
2023/07/11 10:54:24;;;;;;;7.78;2.13;;;;;;;33.45;44.94;101026.72;5020085;28;20045;-60
2023/07/11 10:56:58;;;;;;;7.25;1.98;;;;;;;33.64;43.48;101019.09;5031113;28;20464;-60
2023/07/11 10:59:31;;;;;;;6.10;2.20;;;;;;;33.85;45.60;101024.88;5025954;28;20038;-59
2023/07/11 11:02:05;;;;;;;7.55;2.10;;;;;;;33.74;44.27;101017.63;5012335;28;20529;-60
2023/07/11 11:05:09;;;;;;;7.00;2.05;;;;;;;34.22;44.13;101015.25;5016245;28;20041;-60
2023/07/11 11:07:48;;;;;;;6.10;2.28;;;;;;;34.42;44.21;101007.34;5025839;28;20049;-60
2023/07/11 11:10:30;;;;;;;9.27;2.13;;;;;;;34.18;41.13;101012.19;5029124;28;20054;-61
2023/07/11 11:13:26;;;;;;;5.68;2.05;;;;;;;34.30;42.94;101003.94;5013442;28;20076;-61
2023/07/11 11:16:01;;;;;;;7.03;1.90;;;;;;;34.07;44.00;101010.44;5010784;28;20064;-59
2023/07/11 11:18:40;;;;;;;9.13;2.10;;;;;;;34.10;43.12;101010.75;5010416;28;20042;-60
2023/07/11 11:21:18;;;;;;;6.97;2.30;;;;;;;34.22;43.79;100996.16;5013295;28;20378;-60
2023/07/11 11:24:07;;;;;;;6.75;2.30;;;;;;;34.25;43.51;100996.50;5014406;28;20045;-60
2023/07/11 11:26:39;;;;;;;6.47;2.40;;;;;;;33.90;42.41;100994.16;5013623;28;20134;-60
2023/07/11 11:29:21;;;;;;;5.65;1.92;;;;;;;34.38;43.81;100991.75;5010500;28;20048;-61
2023/07/11 11:31:55;;;;;;;;;;;;;;;34.53;44.50;100987.25;5013331;28;20424;-61
2023/07/11 11:34:40;;;;;;;7.45;2.25;;;;;;;34.67;44.24;100982.22;5010360;28;20448;-61
2023/07/11 11:37:24;;;;;;;5.03;1.92;;;;;;;34.63;41.41;100983.81;5015266;28;20049;-61